Time;durP1;ratioP1;P1;durP2;ratioP2;P2;SDS_P1;SDS_P2;PMS_P1;PMS_P2;Temp;Humidity;BMP_temperature;BMP_pressure;BME280_temperature;BME280_humidity;BME280_pressure;Samples;Min_cycle;Max_cycle;Signal;HPM_P1;HPM_P2
2021/07/30 00:00:38;;;;;;;10.38;5.80;;;25.90;96.70;;;;;;4901081;29;20044;-72
2021/07/30 00:03:08;;;;;;;10.02;5.60;;;26.00;96.70;;;;;;4900275;29;20063;-72
2021/07/30 00:05:38;;;;;;;9.65;5.88;;;25.90;96.70;;;;;;4898461;29;20044;-72
2021/07/30 00:08:07;;;;;;;8.93;5.53;;;25.90;96.70;;;;;;4931524;28;20621;-72
2021/07/30 00:11:28;;;;;;;7.60;5.82;;;26.00;96.70;;;;;;4898890;29;20046;-71
2021/07/30 00:13:57;;;;;;;6.68;5.90;;;26.10;96.70;;;;;;4895349;29;20040;-71
2021/07/30 00:16:47;;;;;;;9.05;5.88;;;26.10;96.70;;;;;;4900168;29;20048;-72
2021/07/30 00:19:15;;;;;;;5.50;4.85;;;26.00;96.70;;;;;;4901846;29;20067;-71
2021/07/30 00:22:05;;;;;;;6.63;5.20;;;26.10;96.70;;;;;;4900931;29;20050;-71
2021/07/30 00:24:33;;;;;;;6.60;5.63;;;26.10;96.70;;;;;;4905621;29;20055;-71
2021/07/30 00:27:26;;;;;;;8.18;5.55;;;26.10;96.70;;;;;;4900373;29;20072;-72
2021/07/30 00:29:56;;;;;;;7.45;5.05;;;26.00;96.70;;;;;;4895778;29;20036;-71
2021/07/30 00:32:25;;;;;;;10.77;5.90;;;25.90;96.70;;;;;;4901333;29;20072;-72
2021/07/30 00:34:54;;;;;;;8.60;5.40;;;25.90;96.70;;;;;;4895079;29;20044;-71
2021/07/30 00:37:57;;;;;;;8.52;6.15;;;25.80;96.70;;;;;;4895623;29;20047;-71
2021/07/30 00:40:25;;;;;;;9.60;5.72;;;25.90;96.70;;;;;;4899131;29;20044;-71
2021/07/30 00:43:21;;;;;;;7.60;5.03;;;25.80;96.70;;;;;;4915760;29;20047;-71
2021/07/30 00:45:53;;;;;;;7.25;5.15;;;25.80;96.70;;;;;;4903386;29;20048;-71
2021/07/30 00:48:23;;;;;;;8.80;5.25;;;25.70;96.70;;;;;;4907677;29;20052;-71
2021/07/30 00:50:53;;;;;;;7.93;5.10;;;25.80;96.70;;;;;;4897843;29;20059;-71
2021/07/30 00:53:30;;;;;;;8.00;5.65;;;25.70;96.70;;;;;;4916195;28;20048;-71
2021/07/30 00:55:59;;;;;;;10.05;5.25;;;25.60;96.70;;;;;;4902224;29;20719;-71
2021/07/30 00:59:10;;;;;;;7.50;5.47;;;25.60;96.70;;;;;;4899661;29;20582;-72
2021/07/30 01:01:40;;;;;;;6.28;5.68;;;25.60;96.70;;;;;;4917149;29;20044;-71
2021/07/30 01:04:09;;;;;;;8.20;5.60;;;25.50;96.70;;;;;;4896300;29;20060;-71
2021/07/30 01:06:39;;;;;;;6.90;5.22;;;25.40;96.70;;;;;;4883577;29;20628;-71
2021/07/30 01:09:09;;;;;;;9.40;5.22;;;25.30;96.70;;;;;;4904237;29;20051;-71
2021/07/30 01:11:39;;;;;;;7.70;5.43;;;25.40;96.70;;;;;;4896019;29;20040;-71
2021/07/30 01:14:09;;;;;;;9.50;6.35;;;25.30;96.70;;;;;;4913123;29;20044;-71
2021/07/30 01:16:41;;;;;;;10.63;5.88;;;25.20;96.70;;;;;;4900854;29;20343;-72
2021/07/30 01:19:21;;;;;;;8.35;5.70;;;25.10;96.70;;;;;;4915345;28;20133;-71
2021/07/30 01:21:54;;;;;;;7.00;5.55;;;25.10;96.70;;;;;;4930768;28;20528;-71
2021/07/30 01:24:29;;;;;;;8.27;5.60;;;25.10;96.70;;;;;;4913435;29;20063;-71
2021/07/30 01:26:59;;;;;;;9.20;6.05;;;25.20;96.70;;;;;;4897017;29;20525;-71
2021/07/30 01:29:34;;;;;;;8.60;5.55;;;25.20;96.70;;;;;;4914346;29;20052;-71
2021/07/30 01:32:21;;;;;;;8.65;5.80;;;25.10;96.70;;;;;;4899362;28;20554;-71
2021/07/30 01:35:02;;;;;;;8.95;5.80;;;25.20;96.70;;;;;;4928024;28;20499;-71
2021/07/30 01:37:39;;;;;;;7.00;5.53;;;25.10;96.70;;;;;;4911431;29;20123;-71
2021/07/30 01:40:11;;;;;;;7.63;5.32;;;25.10;96.70;;;;;;4900326;29;20098;-71
2021/07/30 01:42:41;;;;;;;9.38;5.63;;;25.00;96.70;;;;;;4898802;29;20036;-71
2021/07/30 01:45:12;;;;;;;6.70;5.45;;;25.00;96.70;;;;;;4901130;29;20908;-71
2021/07/30 01:47:41;;;;;;;6.20;5.45;;;25.10;96.70;;;;;;4910440;28;20257;-71
2021/07/30 01:50:10;;;;;;;9.77;5.63;;;25.10;96.70;;;;;;4911292;29;20041;-71
2021/07/30 01:52:39;;;;;;;7.57;5.63;;;25.00;96.70;;;;;;4895352;29;20095;-71
2021/07/30 01:55:11;;;;;;;7.80;5.15;;;25.20;96.70;;;;;;4902552;29;20036;-71
2021/07/30 01:57:41;;;;;;;7.60;5.80;;;25.20;96.70;;;;;;4903541;29;20509;-72
2021/07/30 02:00:12;;;;;;;6.30;5.68;;;25.20;96.70;;;;;;4892411;29;20115;-71
2021/07/30 02:02:42;;;;;;;7.10;5.32;;;25.30;96.70;;;;;;4894041;29;20074;-71
2021/07/30 02:05:12;;;;;;;6.25;5.65;;;25.20;96.70;;;;;;4898400;29;20735;-72
2021/07/30 02:07:45;;;;;;;9.10;5.53;;;25.10;96.70;;;;;;4897419;29;20492;-71
2021/07/30 02:10:15;;;;;;;7.07;5.80;;;25.10;96.70;;;;;;4899846;29;20144;-72
2021/07/30 02:15:31;;;;;;;;;;;25.10;96.70;;;;;;4911115;29;20056;-72
2021/07/30 02:17:59;;;;;;;6.88;4.75;;;25.00;96.70;;;;;;4900041;29;19937;-71
2021/07/30 02:20:28;;;;;;;9.43;5.78;;;25.00;96.70;;;;;;4898967;29;20039;-71
2021/07/30 02:22:58;;;;;;;6.57;5.25;;;24.90;96.70;;;;;;4899869;29;20044;-71
2021/07/30 02:25:30;;;;;;;8.85;5.80;;;24.90;96.70;;;;;;4896630;29;20057;-71
2021/07/30 02:27:59;;;;;;;6.35;5.60;;;24.80;96.70;;;;;;4900104;29;20063;-71
2021/07/30 02:30:28;;;;;;;6.80;5.68;;;24.70;96.70;;;;;;4897124;29;20558;-71
2021/07/30 02:32:57;;;;;;;5.55;5.00;;;24.60;96.70;;;;;;4898190;29;20059;-71
2021/07/30 02:35:26;;;;;;;7.15;5.53;;;24.70;96.70;;;;;;4897948;29;20415;-71
2021/07/30 02:38:02;;;;;;;6.18;5.57;;;24.80;96.70;;;;;;4893577;29;20044;-71
2021/07/30 02:40:34;;;;;;;6.80;5.55;;;24.70;96.70;;;;;;4896120;29;20052;-72
2021/07/30 02:43:02;;;;;;;9.75;5.43;;;24.70;96.70;;;;;;4898722;29;20050;-71
2021/07/30 02:45:32;;;;;;;7.82;5.38;;;24.60;96.70;;;;;;4896352;29;20815;-71
2021/07/30 02:48:01;;;;;;;5.55;5.05;;;24.60;96.70;;;;;;4899846;29;20070;-71
2021/07/30 02:50:30;;;;;;;6.97;5.15;;;24.70;96.70;;;;;;4895989;29;20048;-71
2021/07/30 02:53:00;;;;;;;6.68;6.03;;;24.60;96.70;;;;;;4897832;29;20477;-71
2021/07/30 02:55:35;;;;;;;6.82;5.80;;;24.70;96.70;;;;;;4895763;29;20459;-71
2021/07/30 02:58:10;;;;;;;6.68;5.40;;;24.60;96.70;;;;;;4905495;29;20171;-72
2021/07/30 03:00:41;;;;;;;7.57;5.35;;;24.60;96.70;;;;;;4887307;29;20083;-73
2021/07/30 03:03:10;;;;;;;7.88;5.25;;;24.50;96.70;;;;;;4905072;29;20561;-73
2021/07/30 03:05:41;;;;;;;7.80;5.50;;;24.60;96.70;;;;;;4903479;29;20345;-72
2021/07/30 03:08:11;;;;;;;8.27;5.40;;;24.50;96.70;;;;;;4906909;29;20055;-73
2021/07/30 03:10:43;;;;;;;5.88;5.30;;;24.50;96.70;;;;;;4900199;29;20056;-72
2021/07/30 03:13:13;;;;;;;5.85;5.10;;;24.40;96.70;;;;;;4909525;29;20044;-73
2021/07/30 03:15:43;;;;;;;6.32;4.30;;;24.30;96.70;;;;;;4904339;29;20044;-73
2021/07/30 03:18:12;;;;;;;8.45;5.60;;;24.30;96.70;;;;;;4911684;29;20578;-73
2021/07/30 03:20:41;;;;;;;5.10;4.25;;;24.20;96.70;;;;;;4910043;29;20150;-73
2021/07/30 03:23:10;;;;;;;5.38;4.88;;;24.30;96.70;;;;;;4909489;29;21186;-72
2021/07/30 03:25:38;;;;;;;6.28;4.80;;;24.30;96.70;;;;;;4909738;29;20043;-72
2021/07/30 03:28:09;;;;;;;4.85;4.32;;;24.20;96.70;;;;;;4906686;29;20392;-73
2021/07/30 03:30:39;;;;;;;5.55;5.05;;;24.00;96.70;;;;;;4911015;29;20135;-72
2021/07/30 03:33:09;;;;;;;7.13;5.47;;;24.10;96.70;;;;;;4910098;29;20076;-73
2021/07/30 03:35:40;;;;;;;8.88;5.55;;;24.10;96.70;;;;;;4906295;29;20063;-73
2021/07/30 03:38:14;;;;;;;12.88;5.95;;;24.20;96.70;;;;;;4908906;29;20383;-73
2021/07/30 03:40:43;;;;;;;19.42;8.20;;;24.20;96.70;;;;;;4910930;29;20044;-72
2021/07/30 03:43:15;;;;;;;21.40;9.60;;;24.30;96.70;;;;;;4908798;29;20926;-72
2021/07/30 03:45:44;;;;;;;30.13;11.30;;;24.30;96.70;;;;;;4910609;29;20159;-73
2021/07/30 03:48:13;;;;;;;27.73;12.98;;;24.50;96.70;;;;;;4919996;29;20135;-73
2021/07/30 03:50:42;;;;;;;29.35;11.85;;;24.30;96.70;;;;;;4892668;29;20491;-73
2021/07/30 03:53:11;;;;;;;30.45;12.25;;;24.40;96.70;;;;;;4905832;29;20039;-73
2021/07/30 03:55:41;;;;;;;29.17;12.63;;;24.30;96.70;;;;;;4908797;29;20048;-73
2021/07/30 03:58:10;;;;;;;28.05;13.45;;;24.40;96.70;;;;;;4907147;29;20040;-73
2021/07/30 04:00:41;;;;;;;32.17;14.30;;;24.30;96.70;;;;;;4909950;29;20048;-72
2021/07/30 04:03:10;;;;;;;34.72;15.85;;;24.20;96.70;;;;;;4900656;29;20059;-72
2021/07/30 04:05:54;;;;;;;34.70;15.15;;;24.20;96.70;;;;;;4910027;29;20558;-73
2021/07/30 04:08:22;;;;;;;35.03;14.73;;;24.10;96.70;;;;;;4909395;29;20062;-73
2021/07/30 04:10:51;;;;;;;32.90;14.90;;;24.20;96.70;;;;;;4921079;28;20502;-73
2021/07/30 04:13:19;;;;;;;33.80;15.10;;;24.30;96.70;;;;;;4909533;29;20047;-73
2021/07/30 04:15:48;;;;;;;34.30;14.75;;;24.20;96.70;;;;;;4906714;29;20163;-72
2021/07/30 04:18:17;;;;;;;36.28;15.68;;;24.20;96.70;;;;;;4936976;28;20040;-72
2021/07/30 04:20:45;;;;;;;39.70;16.85;;;24.10;96.70;;;;;;4906841;29;20160;-72
2021/07/30 04:23:13;;;;;;;39.03;16.83;;;24.10;96.70;;;;;;4923989;28;20051;-72
2021/07/30 04:25:41;;;;;;;36.92;16.98;;;24.00;96.70;;;;;;4906966;29;20554;-72
2021/07/30 04:28:10;;;;;;;34.63;17.13;;;24.00;96.70;;;;;;4911441;29;20044;-72
2021/07/30 04:34:23;;;;;;;41.45;18.27;;;24.20;96.70;;;;;;4905235;29;20184;-72
2021/07/30 04:36:53;;;;;;;37.00;17.27;;;24.10;96.70;;;;;;4906431;29;20135;-72
2021/07/30 04:39:21;;;;;;;34.08;18.30;;;24.00;96.70;;;;;;4906814;29;20040;-72
2021/07/30 04:41:50;;;;;;;37.00;18.88;;;24.00;96.70;;;;;;4935851;28;20088;-73
2021/07/30 04:44:19;;;;;;;35.17;19.08;;;24.00;96.70;;;;;;4906819;29;20044;-73
2021/07/30 04:46:47;;;;;;;34.47;19.08;;;23.90;96.70;;;;;;4921026;29;20506;-73
2021/07/30 04:49:15;;;;;;;39.17;19.27;;;23.90;96.70;;;;;;4905799;29;20122;-73
2021/07/30 04:51:45;;;;;;;33.00;17.67;;;23.80;96.70;;;;;;4904409;29;20060;-73
2021/07/30 04:54:13;;;;;;;32.42;18.17;;;23.90;96.70;;;;;;4937248;28;20068;-73
2021/07/30 04:56:41;;;;;;;27.67;16.58;;;24.00;96.70;;;;;;4908691;29;20043;-73
2021/07/30 04:59:09;;;;;;;30.60;17.13;;;24.00;96.70;;;;;;4922442;28;20368;-73
2021/07/30 05:01:42;;;;;;;27.10;15.90;;;24.00;96.70;;;;;;4909577;29;20044;-73
2021/07/30 05:04:10;;;;;;;27.48;16.15;;;24.00;96.70;;;;;;4904227;29;20092;-73
2021/07/30 05:06:38;;;;;;;27.40;17.23;;;24.10;96.70;;;;;;4907572;29;20129;-73
2021/07/30 05:09:08;;;;;;;32.75;17.45;;;24.20;96.70;;;;;;4918865;28;20048;-73
2021/07/30 05:11:36;;;;;;;23.75;15.70;;;24.30;96.70;;;;;;4908835;29;20044;-73
2021/07/30 05:14:04;;;;;;;20.83;13.60;;;24.20;96.70;;;;;;4905157;29;20047;-73
2021/07/30 05:16:33;;;;;;;21.95;13.63;;;24.10;96.70;;;;;;4910322;29;20055;-73
2021/07/30 05:19:01;;;;;;;21.85;14.48;;;24.10;96.70;;;;;;4905871;29;20143;-73
2021/07/30 05:21:29;;;;;;;21.25;13.80;;;24.10;96.70;;;;;;4910778;29;20044;-72
2021/07/30 05:23:58;;;;;;;23.10;14.15;;;24.20;96.70;;;;;;4903280;29;20055;-73
2021/07/30 05:26:28;;;;;;;20.95;14.90;;;24.30;96.70;;;;;;4908462;29;20099;-73
2021/07/30 05:28:56;;;;;;;20.20;14.52;;;24.30;96.70;;;;;;4909346;29;20043;-73
2021/07/30 05:31:24;;;;;;;19.52;14.43;;;24.40;96.70;;;;;;4909380;28;20305;-73
2021/07/30 05:33:52;;;;;;;26.02;16.30;;;24.40;96.70;;;;;;4922052;29;20052;-73
2021/07/30 05:36:21;;;;;;;24.52;16.48;;;24.40;96.70;;;;;;4910068;29;20559;-72
2021/07/30 05:38:49;;;;;;;26.10;16.63;;;24.40;96.70;;;;;;4902524;29;20047;-73
2021/07/30 05:41:17;;;;;;;22.77;15.18;;;24.30;96.70;;;;;;4909726;29;20036;-73
2021/07/30 05:43:49;;;;;;;18.80;14.50;;;24.40;96.70;;;;;;4905405;29;20040;-73
2021/07/30 05:46:20;;;;;;;22.33;15.20;;;24.30;96.70;;;;;;4907872;29;20644;-73
2021/07/30 05:48:52;;;;;;;20.60;13.65;;;24.40;96.70;;;;;;4911394;29;20079;-73
2021/07/30 05:51:20;;;;;;;19.77;13.13;;;24.40;96.70;;;;;;4908683;29;20051;-73
2021/07/30 05:53:48;;;;;;;13.52;11.18;;;24.50;96.70;;;;;;4908631;29;20048;-73
2021/07/30 05:56:16;;;;;;;13.63;11.25;;;24.50;96.70;;;;;;4906188;29;20036;-73
2021/07/30 05:58:46;;;;;;;9.15;8.25;;;24.50;96.70;;;;;;4920980;29;20103;-73
2021/07/30 06:01:14;;;;;;;8.38;7.57;;;24.60;96.70;;;;;;4907823;29;20131;-73
2021/07/30 06:03:47;;;;;;;7.95;7.03;;;24.50;96.70;;;;;;4907285;29;20052;-73
2021/07/30 06:06:15;;;;;;;9.07;7.70;;;24.60;96.70;;;;;;4906844;29;20087;-73
2021/07/30 06:08:43;;;;;;;8.85;7.03;;;24.60;96.70;;;;;;4903366;29;20044;-73
2021/07/30 06:11:11;;;;;;;8.32;7.40;;;24.60;96.70;;;;;;4905637;29;20122;-73
2021/07/30 06:13:39;;;;;;;9.85;7.13;;;24.60;96.70;;;;;;4907749;29;20442;-73
2021/07/30 06:16:10;;;;;;;8.00;6.55;;;24.70;96.70;;;;;;4905895;29;20051;-73
2021/07/30 06:18:58;;;;;;;9.00;6.75;;;24.80;96.70;;;;;;4906278;29;20052;-73
2021/07/30 06:21:26;;;;;;;8.25;6.88;;;24.90;96.70;;;;;;4918325;28;20115;-73
2021/07/30 06:23:54;;;;;;;8.48;5.97;;;25.00;96.70;;;;;;4907999;29;20046;-73
2021/07/30 06:26:22;;;;;;;9.38;7.32;;;25.10;96.70;;;;;;4903160;29;20064;-73
2021/07/30 06:28:50;;;;;;;9.27;7.35;;;25.10;96.70;;;;;;4908308;29;20167;-73
2021/07/30 06:31:20;;;;;;;8.82;7.28;;;25.20;96.70;;;;;;4901259;29;20039;-73
2021/07/30 06:33:48;;;;;;;9.38;7.68;;;25.20;96.70;;;;;;4923679;29;20123;-73
2021/07/30 06:36:16;;;;;;;9.10;7.47;;;25.20;96.70;;;;;;4907315;29;20051;-73
2021/07/30 06:38:45;;;;;;;10.13;7.20;;;25.30;96.70;;;;;;4907335;29;20072;-73
2021/07/30 06:41:15;;;;;;;11.70;7.30;;;25.40;96.70;;;;;;4909095;29;20036;-73
2021/07/30 06:43:43;;;;;;;8.57;6.45;;;25.40;96.70;;;;;;4908058;29;20059;-73
2021/07/30 06:46:11;;;;;;;8.20;6.20;;;25.40;96.70;;;;;;4919206;28;20095;-73
2021/07/30 06:48:41;;;;;;;8.43;5.82;;;25.40;96.70;;;;;;4906484;29;20084;-73
2021/07/30 06:51:11;;;;;;;10.98;6.20;;;25.50;96.70;;;;;;4901334;29;20071;-73
2021/07/30 06:53:39;;;;;;;8.82;6.05;;;25.60;96.70;;;;;;4921519;29;20072;-75
2021/07/30 06:56:11;;;;;;;6.88;5.53;;;25.60;96.70;;;;;;4904759;29;20418;-75
2021/07/30 06:58:44;;;;;;;6.25;5.28;;;25.70;96.70;;;;;;4935101;28;20051;-76
2021/07/30 07:01:13;;;;;;;7.10;4.90;;;25.70;96.70;;;;;;4933234;28;20384;-76
2021/07/30 07:03:43;;;;;;;9.55;5.68;;;25.70;96.70;;;;;;4905398;29;20060;-76
2021/07/30 07:06:15;;;;;;;6.65;5.15;;;25.80;96.70;;;;;;4917832;29;20056;-74
2021/07/30 07:08:44;;;;;;;5.40;4.63;;;25.90;96.70;;;;;;4903942;29;20079;-76
2021/07/30 07:11:12;;;;;;;7.10;5.15;;;25.90;96.70;;;;;;4921526;29;20052;-77
2021/07/30 07:13:43;;;;;;;9.73;5.40;;;25.90;96.70;;;;;;4935115;28;20052;-74
2021/07/30 07:16:12;;;;;;;6.47;5.22;;;26.00;96.70;;;;;;4907295;29;20048;-74
2021/07/30 07:18:42;;;;;;;5.60;4.68;;;26.10;96.70;;;;;;4916935;28;20084;-74
2021/07/30 07:21:13;;;;;;;9.30;5.45;;;26.20;96.70;;;;;;4907387;29;20091;-73
2021/07/30 07:23:42;;;;;;;6.53;4.97;;;26.10;96.70;;;;;;4906150;29;20083;-74
2021/07/30 07:26:10;;;;;;;8.15;5.10;;;26.10;96.70;;;;;;4906036;29;20043;-74
2021/07/30 07:28:38;;;;;;;11.30;4.68;;;26.20;96.70;;;;;;4894089;29;20582;-73
2021/07/30 07:31:06;;;;;;;7.07;4.60;;;26.30;96.70;;;;;;4901611;29;20040;-73
2021/07/30 07:33:35;;;;;;;6.60;5.07;;;26.40;96.70;;;;;;4903973;29;20068;-73
2021/07/30 07:36:05;;;;;;;5.35;4.82;;;26.50;96.70;;;;;;4907749;29;20048;-73
2021/07/30 07:38:33;;;;;;;8.35;5.00;;;26.60;96.70;;;;;;4931924;28;20143;-74
2021/07/30 07:41:01;;;;;;;8.05;4.93;;;26.60;96.70;;;;;;4904444;29;20075;-73
2021/07/30 07:43:29;;;;;;;7.00;4.93;;;26.60;96.70;;;;;;4899741;29;20365;-73
2021/07/30 07:45:58;;;;;;;9.18;4.70;;;26.70;96.70;;;;;;4905070;29;20048;-73
2021/07/30 07:48:29;;;;;;;9.23;4.95;;;26.70;96.70;;;;;;4905817;29;20058;-74
2021/07/30 07:50:57;;;;;;;7.15;5.38;;;26.80;96.70;;;;;;4907510;29;20048;-74
2021/07/30 07:53:26;;;;;;;6.68;4.90;;;26.90;96.70;;;;;;4904423;29;20048;-74
2021/07/30 07:56:01;;;;;;;6.35;5.07;;;26.90;96.70;;;;;;4907153;29;20601;-74
2021/07/30 07:58:30;;;;;;;5.72;4.47;;;26.80;96.70;;;;;;4907715;29;20320;-74
2021/07/30 08:00:58;;;;;;;8.90;4.63;;;26.80;96.70;;;;;;4910231;29;20051;-74
2021/07/30 08:03:27;;;;;;;8.27;5.07;;;26.90;96.70;;;;;;4905041;29;20135;-73
2021/07/30 08:05:55;;;;;;;9.27;4.70;;;26.90;96.70;;;;;;4922536;29;20063;-73
2021/07/30 08:08:23;;;;;;;6.47;4.72;;;26.90;96.70;;;;;;4909267;29;20051;-75
2021/07/30 08:10:53;;;;;;;8.00;4.88;;;27.00;96.70;;;;;;4935281;29;20063;-75
2021/07/30 08:13:22;;;;;;;6.13;4.85;;;27.10;96.70;;;;;;4906643;29;20052;-74
2021/07/30 08:15:50;;;;;;;10.60;4.78;;;27.20;96.70;;;;;;4912835;29;20131;-74
2021/07/30 08:18:19;;;;;;;10.10;4.60;;;27.20;96.70;;;;;;4909658;29;20044;-75
2021/07/30 08:20:47;;;;;;;9.77;4.80;;;27.30;96.70;;;;;;4921161;29;20048;-72
2021/07/30 08:23:15;;;;;;;5.22;4.30;;;27.30;96.70;;;;;;4921717;28;20059;-72
2021/07/30 08:25:44;;;;;;;5.63;4.00;;;27.40;96.70;;;;;;4920716;28;20056;-72
2021/07/30 08:28:14;;;;;;;5.88;4.18;;;27.60;96.70;;;;;;4909180;29;20503;-73
2021/07/30 08:30:42;;;;;;;7.18;4.30;;;27.70;96.70;;;;;;4904529;29;20459;-72
2021/07/30 08:33:11;;;;;;;8.70;4.63;;;27.80;96.70;;;;;;4920973;29;20056;-72
2021/07/30 08:35:41;;;;;;;5.63;3.92;;;27.80;96.70;;;;;;4921949;29;20048;-72
2021/07/30 08:38:09;;;;;;;7.00;4.15;;;27.80;96.70;;;;;;4911086;29;20106;-72
2021/07/30 08:40:39;;;;;;;7.47;4.65;;;27.80;96.70;;;;;;4906589;29;20032;-72
2021/07/30 08:43:14;;;;;;;5.75;5.00;;;27.90;96.70;;;;;;4923831;29;20586;-72
2021/07/30 08:45:49;;;;;;;5.65;4.63;;;28.00;96.70;;;;;;4904848;29;20418;-71
2021/07/30 08:48:19;;;;;;;6.85;4.97;;;28.20;96.70;;;;;;4904411;29;20056;-73
2021/07/30 08:50:48;;;;;;;7.15;4.25;;;28.30;96.70;;;;;;4900548;29;20084;-73
2021/07/30 08:53:22;;;;;;;5.20;4.55;;;28.30;96.70;;;;;;4907185;29;20051;-73
2021/07/30 08:55:51;;;;;;;7.28;4.78;;;28.30;96.70;;;;;;4904340;29;20067;-72
2021/07/30 08:58:22;;;;;;;8.82;4.68;;;28.40;96.50;;;;;;4907805;29;20047;-74
2021/07/30 09:00:50;;;;;;;7.22;5.32;;;28.50;96.10;;;;;;4908279;29;20140;-74
2021/07/30 09:03:19;;;;;;;9.30;5.50;;;28.60;96.70;;;;;;4906979;29;20047;-72
2021/07/30 09:05:48;;;;;;;8.50;5.38;;;28.70;95.80;;;;;;4904339;29;20518;-71
2021/07/30 09:08:26;;;;;;;7.30;4.90;;;28.70;95.30;;;;;;4892366;29;20048;-72
2021/07/30 09:10:55;;;;;;;6.78;4.95;;;28.80;95.00;;;;;;4905939;29;20044;-70
2021/07/30 09:13:27;;;;;;;7.85;5.03;;;28.80;94.50;;;;;;4907982;29;20043;-70
2021/07/30 09:16:04;;;;;;;10.02;5.63;;;28.90;95.30;;;;;;4908132;29;20048;-70
2021/07/30 09:18:34;;;;;;;8.63;5.25;;;29.10;94.40;;;;;;4910323;29;20403;-70
2021/07/30 09:21:31;;;;;;;7.25;4.65;;;29.10;94.40;;;;;;4900845;29;20526;-71
2021/07/30 09:24:00;;;;;;;10.97;5.20;;;29.20;94.90;;;;;;4873524;29;20105;-71
2021/07/30 09:26:31;;;;;;;7.70;5.00;;;29.30;94.50;;;;;;4922991;28;20044;-72
2021/07/30 09:29:03;;;;;;;7.35;4.40;;;29.40;93.40;;;;;;4906932;29;20032;-71
2021/07/30 09:31:43;;;;;;;7.40;4.63;;;29.50;93.40;;;;;;4909164;29;20079;-72
2021/07/30 09:34:20;;;;;;;8.13;5.10;;;29.50;93.20;;;;;;4907158;29;20143;-72
2021/07/30 09:36:52;;;;;;;6.10;3.80;;;29.50;93.40;;;;;;4923424;29;20048;-72
2021/07/30 09:39:22;;;;;;;4.63;3.97;;;29.70;92.50;;;;;;4904516;29;20056;-72
2021/07/30 09:41:52;;;;;;;4.15;3.17;;;29.70;92.40;;;;;;4918591;29;20044;-72
2021/07/30 09:44:22;;;;;;;6.53;4.10;;;29.80;91.50;;;;;;4907507;29;20059;-72
2021/07/30 09:47:11;;;;;;;7.07;3.85;;;29.80;91.60;;;;;;4908891;29;20064;-72
2021/07/30 09:49:45;;;;;;;5.88;4.00;;;29.80;91.30;;;;;;4908582;29;20079;-72
2021/07/30 09:52:15;;;;;;;5.55;3.70;;;29.80;91.70;;;;;;4921644;29;20139;-71
2021/07/30 09:54:45;;;;;;;4.65;3.63;;;29.90;91.80;;;;;;4907805;29;20060;-72
2021/07/30 09:57:16;;;;;;;6.18;4.32;;;30.00;92.00;;;;;;4902083;29;20044;-72
2021/07/30 09:59:47;;;;;;;7.40;3.92;;;30.00;92.00;;;;;;4908839;29;20056;-72
2021/07/30 10:02:19;;;;;;;4.30;3.85;;;30.10;92.20;;;;;;4909410;29;20039;-72
2021/07/30 10:04:50;;;;;;;7.55;4.68;;;30.20;92.50;;;;;;4907720;29;20510;-71
2021/07/30 10:07:20;;;;;;;7.53;4.78;;;30.20;92.60;;;;;;4907415;29;20056;-71
2021/07/30 10:09:57;;;;;;;5.28;4.35;;;30.30;92.70;;;;;;4938816;28;20044;-72
2021/07/30 10:12:26;;;;;;;7.53;4.20;;;30.40;92.20;;;;;;4904103;29;20503;-71
2021/07/30 10:14:57;;;;;;;6.60;4.53;;;30.40;92.20;;;;;;4908488;29;20041;-71
2021/07/30 10:17:31;;;;;;;6.93;4.55;;;30.60;92.40;;;;;;4905764;29;20044;-71
2021/07/30 10:20:02;;;;;;;5.40;4.50;;;30.60;92.40;;;;;;4920194;29;20522;-72
2021/07/30 10:22:34;;;;;;;5.72;4.70;;;30.70;92.30;;;;;;4906080;29;20120;-71
2021/07/30 10:25:05;;;;;;;6.97;4.93;;;30.70;92.40;;;;;;4922633;29;20060;-71
2021/07/30 10:27:38;;;;;;;6.30;4.88;;;30.80;92.50;;;;;;4914333;29;20057;-72
2021/07/30 10:30:10;;;;;;;5.45;3.97;;;30.90;92.40;;;;;;4907806;29;20139;-72
2021/07/30 10:32:44;;;;;;;6.03;4.38;;;31.00;91.80;;;;;;4910277;29;20075;-72
2021/07/30 10:35:13;;;;;;;8.75;4.65;;;31.10;91.50;;;;;;4907086;29;20536;-72
2021/07/30 10:37:42;;;;;;;5.65;4.28;;;31.20;91.40;;;;;;4921471;29;20691;-72
2021/07/30 10:40:13;;;;;;;5.75;4.32;;;31.30;91.30;;;;;;4906428;29;20036;-72
2021/07/30 10:43:02;;;;;;;6.07;4.75;;;31.50;91.50;;;;;;4907534;29;20421;-72
2021/07/30 10:45:33;;;;;;;5.25;4.47;;;31.30;90.80;;;;;;4903742;29;20052;-72
2021/07/30 10:48:35;;;;;;;5.93;4.30;;;31.40;90.20;;;;;;4906721;29;20045;-72
2021/07/30 10:51:30;;;;;;;5.28;4.32;;;31.60;90.20;;;;;;4900349;29;20053;-72
2021/07/30 10:53:59;;;;;;;6.32;4.70;;;31.60;89.90;;;;;;4902307;29;20056;-71
2021/07/30 10:56:45;;;;;;;6.88;4.50;;;31.70;89.90;;;;;;4903928;29;20040;-72
2021/07/30 10:59:15;;;;;;;4.60;4.10;;;31.80;89.20;;;;;;4906827;29;20075;-72
2021/07/30 11:01:56;;;;;;;5.60;4.13;;;31.90;89.70;;;;;;4900492;29;20080;-71
2021/07/30 11:04:25;;;;;;;4.93;4.13;;;32.00;88.50;;;;;;4902429;29;21041;-71
2021/07/30 11:06:55;;;;;;;5.38;3.95;;;31.90;86.90;;;;;;4907256;29;20067;-72
2021/07/30 11:09:36;;;;;;;6.75;4.68;;;32.10;87.30;;;;;;4906117;29;20040;-71
2021/07/30 11:12:07;;;;;;;7.30;4.40;;;32.10;86.90;;;;;;4919789;29;20052;-71
2021/07/30 11:14:36;;;;;;;5.57;4.13;;;31.90;86.30;;;;;;4913194;29;20414;-72
2021/07/30 11:17:08;;;;;;;4.78;4.28;;;32.00;86.80;;;;;;4907325;29;20040;-72
2021/07/30 11:19:38;;;;;;;5.43;4.30;;;32.10;87.00;;;;;;4908334;29;20083;-71
2021/07/30 11:22:07;;;;;;;4.35;3.85;;;32.10;87.00;;;;;;4909241;29;20048;-71
2021/07/30 11:24:40;;;;;;;6.57;4.00;;;32.30;85.90;;;;;;4901286;29;20068;-71
2021/07/30 11:27:10;;;;;;;8.07;4.00;;;32.50;84.70;;;;;;4906837;29;20645;-72
2021/07/30 11:29:43;;;;;;;5.22;4.57;;;32.60;85.40;;;;;;4904785;29;20541;-72
2021/07/30 11:32:14;;;;;;;4.95;4.30;;;32.60;85.40;;;;;;4907281;29;20052;-72
2021/07/30 11:34:49;;;;;;;7.55;4.57;;;32.70;84.50;;;;;;4908790;29;20063;-71
2021/07/30 11:37:23;;;;;;;7.45;4.15;;;32.80;83.90;;;;;;4920844;29;20059;-72
2021/07/30 11:39:57;;;;;;;5.10;4.25;;;32.80;84.00;;;;;;4907848;29;20130;-72
2021/07/30 11:42:28;;;;;;;7.43;4.38;;;32.70;84.90;;;;;;4908998;29;20418;-72
2021/07/30 11:44:59;;;;;;;5.43;4.25;;;32.80;84.30;;;;;;4909412;29;20055;-71
2021/07/30 11:47:30;;;;;;;6.18;4.20;;;33.00;83.90;;;;;;4908909;29;20087;-72
2021/07/30 11:50:03;;;;;;;4.53;3.63;;;32.90;83.50;;;;;;4909521;29;20084;-72
2021/07/30 11:52:31;;;;;;;5.47;4.32;;;33.00;83.50;;;;;;4910735;29;20519;-72
2021/07/30 11:55:14;;;;;;;8.13;4.60;;;33.10;83.40;;;;;;4905478;29;20499;-72
2021/07/30 11:57:42;;;;;;;5.70;4.20;;;33.30;83.70;;;;;;4908439;29;20138;-72
2021/07/30 12:00:21;;;;;;;6.70;4.25;;;33.10;83.50;;;;;;4909055;29;20051;-72
2021/07/30 12:02:51;;;;;;;5.15;4.55;;;33.10;84.20;;;;;;4907377;29;20048;-72
2021/07/30 12:05:29;;;;;;;4.68;4.25;;;33.20;84.80;;;;;;4925171;29;20052;-72
2021/07/30 12:07:59;;;;;;;5.00;3.60;;;33.40;84.70;;;;;;4918816;29;20051;-72
2021/07/30 12:10:28;;;;;;;4.80;3.88;;;33.40;82.90;;;;;;4921567;29;20048;-72
2021/07/30 12:12:59;;;;;;;7.65;4.07;;;33.40;83.50;;;;;;4919993;29;20146;-71
2021/07/30 12:15:27;;;;;;;5.32;3.35;;;33.70;83.60;;;;;;4909760;29;20507;-72
2021/07/30 12:17:59;;;;;;;5.30;3.72;;;33.70;82.20;;;;;;4906849;29;20495;-72
2021/07/30 12:20:30;;;;;;;5.00;3.72;;;33.60;81.10;;;;;;4907946;29;20040;-72
2021/07/30 12:23:03;;;;;;;3.88;3.58;;;33.70;81.60;;;;;;4916730;28;20045;-72
2021/07/30 12:25:36;;;;;;;4.03;3.63;;;33.80;81.70;;;;;;4910338;29;20066;-72
2021/07/30 12:28:06;;;;;;;3.97;3.42;;;33.70;79.00;;;;;;4906418;29;20080;-72
2021/07/30 12:30:35;;;;;;;6.10;4.70;;;33.70;79.10;;;;;;4910422;29;20060;-72
2021/07/30 12:33:23;;;;;;;3.65;3.03;;;33.90;79.60;;;;;;4903371;29;20141;-71
2021/07/30 12:36:01;;;;;;;4.63;3.28;;;33.80;77.30;;;;;;4916577;29;20507;-72
2021/07/30 12:38:30;;;;;;;5.30;3.42;;;33.70;78.10;;;;;;4907897;29;20040;-72
2021/07/30 12:41:17;;;;;;;4.55;3.10;;;33.70;78.20;;;;;;4909641;29;20044;-72
2021/07/30 12:43:46;;;;;;;5.45;3.33;;;33.80;77.00;;;;;;4939180;28;20048;-72
2021/07/30 12:46:36;;;;;;;6.35;3.55;;;33.80;77.80;;;;;;4903060;29;20414;-72
2021/07/30 12:49:07;;;;;;;3.42;3.08;;;33.90;78.10;;;;;;4909613;29;20060;-72
2021/07/30 12:51:36;;;;;;;4.55;3.70;;;34.00;79.70;;;;;;4922152;28;20056;-72
2021/07/30 12:54:09;;;;;;;3.30;2.97;;;34.00;79.20;;;;;;4911307;29;20451;-72
2021/07/30 12:57:03;;;;;;;5.25;3.35;;;34.10;78.10;;;;;;4899942;29;20050;-72
2021/07/30 12:59:51;;;;;;;6.10;3.22;;;34.10;77.90;;;;;;4893919;29;20052;-72
2021/07/30 13:02:21;;;;;;;3.28;2.97;;;33.90;76.80;;;;;;4920175;29;20040;-72
2021/07/30 13:04:51;;;;;;;3.53;3.15;;;34.00;76.60;;;;;;4912414;29;20063;-72
2021/07/30 13:07:21;;;;;;;3.85;2.95;;;34.10;77.30;;;;;;4910875;29;20182;-72
2021/07/30 13:09:52;;;;;;;4.18;3.28;;;34.10;77.00;;;;;;4906653;29;20067;-72
2021/07/30 13:12:20;;;;;;;3.60;3.30;;;34.30;77.00;;;;;;4909201;29;20047;-72